sensor_id;sensor_type;location;lat;lon;timestamp;P1;durP1;ratioP1;P2;durP2;ratioP2
17854;SDS011;9053;53.358;6.382;2023-02-02T00:01:23;21.37;;;4.50;;
17854;SDS011;9053;53.358;6.382;2023-02-02T00:03:53;21.03;;;4.10;;
17854;SDS011;9053;53.358;6.382;2023-02-02T00:06:24;17.07;;;4.00;;
17854;SDS011;9053;53.358;6.382;2023-02-02T00:08:55;18.83;;;3.60;;
17854;SDS011;9053;53.358;6.382;2023-02-02T00:11:29;16.20;;;3.50;;
17854;SDS011;9053;53.358;6.382;2023-02-02T00:13:59;17.50;;;4.00;;
17854;SDS011;9053;53.358;6.382;2023-02-02T00:16:36;20.03;;;4.07;;
17854;SDS011;9053;53.358;6.382;2023-02-02T00:19:13;24.37;;;4.47;;
17854;SDS011;9053;53.358;6.382;2023-02-02T00:21:45;20.43;;;4.27;;
17854;SDS011;9053;53.358;6.382;2023-02-02T00:24:15;22.40;;;3.90;;
17854;SDS011;9053;53.358;6.382;2023-02-02T00:26:49;15.87;;;3.80;;
17854;SDS011;9053;53.358;6.382;2023-02-02T00:29:23;19.33;;;4.00;;
17854;SDS011;9053;53.358;6.382;2023-02-02T00:31:54;25.13;;;4.63;;
17854;SDS011;9053;53.358;6.382;2023-02-02T00:34:24;19.60;;;4.23;;
17854;SDS011;9053;53.358;6.382;2023-02-02T00:36:54;19.97;;;4.70;;
17854;SDS011;9053;53.358;6.382;2023-02-02T00:39:24;22.53;;;5.00;;
17854;SDS011;9053;53.358;6.382;2023-02-02T00:41:57;18.53;;;4.50;;
17854;SDS011;9053;53.358;6.382;2023-02-02T00:44:27;23.57;;;4.83;;
17854;SDS011;9053;53.358;6.382;2023-02-02T00:47:09;21.23;;;4.80;;
17854;SDS011;9053;53.358;6.382;2023-02-02T00:49:39;21.20;;;4.03;;
17854;SDS011;9053;53.358;6.382;2023-02-02T00:52:10;23.27;;;4.43;;
17854;SDS011;9053;53.358;6.382;2023-02-02T00:54:40;25.43;;;4.23;;
17854;SDS011;9053;53.358;6.382;2023-02-02T00:57:13;16.87;;;4.23;;
17854;SDS011;9053;53.358;6.382;2023-02-02T00:59:43;22.03;;;4.10;;
17854;SDS011;9053;53.358;6.382;2023-02-02T01:02:13;18.97;;;4.67;;
17854;SDS011;9053;53.358;6.382;2023-02-02T01:04:43;23.17;;;4.47;;
17854;SDS011;9053;53.358;6.382;2023-02-02T01:07:13;14.77;;;4.30;;
17854;SDS011;9053;53.358;6.382;2023-02-02T01:09:43;22.67;;;4.50;;
17854;SDS011;9053;53.358;6.382;2023-02-02T01:12:17;19.17;;;4.60;;
17854;SDS011;9053;53.358;6.382;2023-02-02T01:14:47;24.97;;;4.77;;
17854;SDS011;9053;53.358;6.382;2023-02-02T01:17:17;24.93;;;5.33;;
17854;SDS011;9053;53.358;6.382;2023-02-02T01:19:47;20.10;;;4.43;;
17854;SDS011;9053;53.358;6.382;2023-02-02T01:22:17;19.17;;;4.40;;
17854;SDS011;9053;53.358;6.382;2023-02-02T01:24:47;23.30;;;4.90;;
17854;SDS011;9053;53.358;6.382;2023-02-02T01:27:19;21.83;;;4.73;;
17854;SDS011;9053;53.358;6.382;2023-02-02T01:29:49;15.83;;;4.40;;
17854;SDS011;9053;53.358;6.382;2023-02-02T01:32:19;26.17;;;4.70;;
17854;SDS011;9053;53.358;6.382;2023-02-02T01:34:49;21.33;;;4.37;;
17854;SDS011;9053;53.358;6.382;2023-02-02T01:37:19;17.93;;;4.00;;
17854;SDS011;9053;53.358;6.382;2023-02-02T01:39:49;21.63;;;4.37;;
17854;SDS011;9053;53.358;6.382;2023-02-02T01:42:22;18.00;;;4.07;;
17854;SDS011;9053;53.358;6.382;2023-02-02T01:45:04;16.13;;;4.20;;
17854;SDS011;9053;53.358;6.382;2023-02-02T01:47:42;22.17;;;4.77;;
17854;SDS011;9053;53.358;6.382;2023-02-02T01:50:16;17.60;;;3.97;;
17854;SDS011;9053;53.358;6.382;2023-02-02T01:52:48;19.10;;;3.93;;
17854;SDS011;9053;53.358;6.382;2023-02-02T01:55:21;19.23;;;3.60;;
17854;SDS011;9053;53.358;6.382;2023-02-02T01:57:58;18.50;;;4.03;;
17854;SDS011;9053;53.358;6.382;2023-02-02T02:00:30;16.63;;;4.13;;
17854;SDS011;9053;53.358;6.382;2023-02-02T02:03:01;21.17;;;4.67;;
17854;SDS011;9053;53.358;6.382;2023-02-02T02:05:37;20.00;;;4.50;;
17854;SDS011;9053;53.358;6.382;2023-02-02T02:08:12;15.47;;;3.90;;
17854;SDS011;9053;53.358;6.382;2023-02-02T02:10:45;13.93;;;3.83;;
17854;SDS011;9053;53.358;6.382;2023-02-02T02:13:18;18.07;;;3.67;;
17854;SDS011;9053;53.358;6.382;2023-02-02T02:16:12;19.00;;;4.50;;
17854;SDS011;9053;53.358;6.382;2023-02-02T02:18:48;17.53;;;5.53;;
17854;SDS011;9053;53.358;6.382;2023-02-02T02:28:06;18.30;;;3.70;;
17854;SDS011;9053;53.358;6.382;2023-02-02T02:33:55;15.90;;;4.30;;
17854;SDS011;9053;53.358;6.382;2023-02-02T02:36:32;20.17;;;4.40;;
17854;SDS011;9053;53.358;6.382;2023-02-02T02:39:15;18.10;;;4.47;;
17854;SDS011;9053;53.358;6.382;2023-02-02T02:41:49;13.97;;;3.53;;
17854;SDS011;9053;53.358;6.382;2023-02-02T02:44:23;17.57;;;4.07;;
17854;SDS011;9053;53.358;6.382;2023-02-02T02:46:55;11.33;;;3.40;;
17854;SDS011;9053;53.358;6.382;2023-02-02T02:49:28;23.60;;;4.70;;
17854;SDS011;9053;53.358;6.382;2023-02-02T02:51:58;23.03;;;3.67;;
17854;SDS011;9053;53.358;6.382;2023-02-02T02:54:29;16.50;;;3.83;;
17854;SDS011;9053;53.358;6.382;2023-02-02T02:57:08;20.33;;;4.83;;
17854;SDS011;9053;53.358;6.382;2023-02-02T02:59:53;16.07;;;4.53;;
17854;SDS011;9053;53.358;6.382;2023-02-02T03:02:33;16.63;;;4.50;;
17854;SDS011;9053;53.358;6.382;2023-02-02T03:05:16;21.00;;;4.60;;
17854;SDS011;9053;53.358;6.382;2023-02-02T03:07:57;18.80;;;4.87;;
17854;SDS011;9053;53.358;6.382;2023-02-02T03:10:35;23.50;;;4.37;;
17854;SDS011;9053;53.358;6.382;2023-02-02T03:13:09;16.83;;;4.43;;
17854;SDS011;9053;53.358;6.382;2023-02-02T03:15:41;22.57;;;4.60;;
17854;SDS011;9053;53.358;6.382;2023-02-02T03:18:12;22.90;;;5.53;;
17854;SDS011;9053;53.358;6.382;2023-02-02T03:20:47;20.87;;;4.50;;
17854;SDS011;9053;53.358;6.382;2023-02-02T03:23:16;23.37;;;5.13;;
17854;SDS011;9053;53.358;6.382;2023-02-02T03:25:46;18.23;;;4.63;;
17854;SDS011;9053;53.358;6.382;2023-02-02T03:28:16;17.43;;;4.27;;
17854;SDS011;9053;53.358;6.382;2023-02-02T03:30:47;19.87;;;5.67;;
17854;SDS011;9053;53.358;6.382;2023-02-02T03:33:18;18.43;;;4.63;;
17854;SDS011;9053;53.358;6.382;2023-02-02T03:35:50;17.73;;;4.03;;
17854;SDS011;9053;53.358;6.382;2023-02-02T03:38:20;17.00;;;4.47;;
17854;SDS011;9053;53.358;6.382;2023-02-02T03:40:50;18.90;;;4.70;;
17854;SDS011;9053;53.358;6.382;2023-02-02T03:43:20;16.20;;;4.03;;
17854;SDS011;9053;53.358;6.382;2023-02-02T03:45:54;16.77;;;3.23;;
17854;SDS011;9053;53.358;6.382;2023-02-02T03:48:25;20.77;;;3.63;;
17854;SDS011;9053;53.358;6.382;2023-02-02T03:50:58;18.20;;;3.50;;
17854;SDS011;9053;53.358;6.382;2023-02-02T03:53:27;17.07;;;3.13;;
17854;SDS011;9053;53.358;6.382;2023-02-02T03:55:57;16.37;;;3.37;;
17854;SDS011;9053;53.358;6.382;2023-02-02T03:58:27;12.57;;;2.80;;
17854;SDS011;9053;53.358;6.382;2023-02-02T04:00:58;11.07;;;2.37;;
17854;SDS011;9053;53.358;6.382;2023-02-02T04:03:30;9.80;;;2.27;;
17854;SDS011;9053;53.358;6.382;2023-02-02T04:06:03;8.77;;;2.10;;
17854;SDS011;9053;53.358;6.382;2023-02-02T04:08:33;7.07;;;1.50;;
17854;SDS011;9053;53.358;6.382;2023-02-02T04:11:07;3.80;;;1.50;;
17854;SDS011;9053;53.358;6.382;2023-02-02T04:13:38;8.43;;;1.63;;
17854;SDS011;9053;53.358;6.382;2023-02-02T04:16:09;4.83;;;1.40;;
17854;SDS011;9053;53.358;6.382;2023-02-02T04:18:40;5.27;;;1.23;;
17854;SDS011;9053;53.358;6.382;2023-02-02T04:21:13;4.13;;;1.30;;
17854;SDS011;9053;53.358;6.382;2023-02-02T04:23:43;4.47;;;1.30;;
17854;SDS011;9053;53.358;6.382;2023-02-02T04:26:13;5.47;;;1.60;;
17854;SDS011;9053;53.358;6.382;2023-02-02T04:28:43;4.73;;;1.20;;
17854;SDS011;9053;53.358;6.382;2023-02-02T04:31:13;6.03;;;1.77;;
17854;SDS011;9053;53.358;6.382;2023-02-02T04:33:43;9.20;;;1.90;;
17854;SDS011;9053;53.358;6.382;2023-02-02T04:36:15;8.20;;;2.10;;
17854;SDS011;9053;53.358;6.382;2023-02-02T04:38:47;7.03;;;1.80;;
17854;SDS011;9053;53.358;6.382;2023-02-02T04:41:18;9.97;;;2.37;;
17854;SDS011;9053;53.358;6.382;2023-02-02T04:43:48;10.90;;;2.97;;
17854;SDS011;9053;53.358;6.382;2023-02-02T04:46:19;10.20;;;2.30;;
17854;SDS011;9053;53.358;6.382;2023-02-02T04:48:49;11.47;;;2.03;;
17854;SDS011;9053;53.358;6.382;2023-02-02T04:51:21;9.43;;;2.20;;
17854;SDS011;9053;53.358;6.382;2023-02-02T04:53:51;5.23;;;1.87;;
17854;SDS011;9053;53.358;6.382;2023-02-02T04:56:21;9.33;;;2.20;;
17854;SDS011;9053;53.358;6.382;2023-02-02T04:58:52;9.50;;;2.00;;
17854;SDS011;9053;53.358;6.382;2023-02-02T05:01:22;13.77;;;2.40;;
17854;SDS011;9053;53.358;6.382;2023-02-02T05:03:52;7.60;;;2.20;;
17854;SDS011;9053;53.358;6.382;2023-02-02T05:06:24;5.87;;;1.60;;
17854;SDS011;9053;53.358;6.382;2023-02-02T05:08:54;5.63;;;1.57;;
17854;SDS011;9053;53.358;6.382;2023-02-02T05:11:25;8.27;;;1.93;;
17854;SDS011;9053;53.358;6.382;2023-02-02T05:13:56;4.30;;;1.30;;
17854;SDS011;9053;53.358;6.382;2023-02-02T05:16:26;5.03;;;1.50;;
17854;SDS011;9053;53.358;6.382;2023-02-02T05:18:56;8.23;;;1.83;;
17854;SDS011;9053;53.358;6.382;2023-02-02T05:21:28;2.27;;;1.20;;
17854;SDS011;9053;53.358;6.382;2023-02-02T05:23:58;3.80;;;1.33;;
17854;SDS011;9053;53.358;6.382;2023-02-02T05:26:29;4.10;;;1.20;;
17854;SDS011;9053;53.358;6.382;2023-02-02T05:28:59;4.17;;;1.60;;
17854;SDS011;9053;53.358;6.382;2023-02-02T05:31:29;9.30;;;1.70;;
17854;SDS011;9053;53.358;6.382;2023-02-02T05:33:59;5.23;;;1.50;;
17854;SDS011;9053;53.358;6.382;2023-02-02T05:36:31;4.57;;;1.10;;
17854;SDS011;9053;53.358;6.382;2023-02-02T05:39:01;4.23;;;1.40;;
17854;SDS011;9053;53.358;6.382;2023-02-02T05:41:31;4.23;;;1.30;;
17854;SDS011;9053;53.358;6.382;2023-02-02T05:44:01;3.77;;;1.43;;
17854;SDS011;9053;53.358;6.382;2023-02-02T05:46:31;5.27;;;1.50;;
17854;SDS011;9053;53.358;6.382;2023-02-02T05:49:02;7.33;;;1.70;;
17854;SDS011;9053;53.358;6.382;2023-02-02T05:51:36;2.43;;;1.20;;
17854;SDS011;9053;53.358;6.382;2023-02-02T05:54:10;4.87;;;1.40;;
17854;SDS011;9053;53.358;6.382;2023-02-02T05:56:44;5.10;;;1.17;;
17854;SDS011;9053;53.358;6.382;2023-02-02T05:59:15;5.37;;;1.57;;
17854;SDS011;9053;53.358;6.382;2023-02-02T06:01:45;7.40;;;1.90;;
17854;SDS011;9053;53.358;6.382;2023-02-02T06:04:16;5.30;;;1.93;;
17854;SDS011;9053;53.358;6.382;2023-02-02T06:06:49;4.20;;;1.80;;
17854;SDS011;9053;53.358;6.382;2023-02-02T06:09:18;8.00;;;2.33;;
17854;SDS011;9053;53.358;6.382;2023-02-02T06:11:49;6.10;;;2.27;;
17854;SDS011;9053;53.358;6.382;2023-02-02T06:14:19;7.10;;;2.00;;
17854;SDS011;9053;53.358;6.382;2023-02-02T06:16:49;5.13;;;1.57;;
17854;SDS011;9053;53.358;6.382;2023-02-02T06:19:18;6.33;;;1.70;;
17854;SDS011;9053;53.358;6.382;2023-02-02T06:21:51;5.27;;;1.93;;
17854;SDS011;9053;53.358;6.382;2023-02-02T06:24:21;4.87;;;1.73;;
17854;SDS011;9053;53.358;6.382;2023-02-02T06:26:50;5.77;;;1.57;;
17854;SDS011;9053;53.358;6.382;2023-02-02T06:29:20;5.80;;;1.50;;
17854;SDS011;9053;53.358;6.382;2023-02-02T06:31:50;5.20;;;2.80;;
17854;SDS011;9053;53.358;6.382;2023-02-02T06:34:20;4.63;;;1.50;;
17854;SDS011;9053;53.358;6.382;2023-02-02T06:36:53;6.43;;;1.63;;
17854;SDS011;9053;53.358;6.382;2023-02-02T06:39:23;4.63;;;1.63;;
17854;SDS011;9053;53.358;6.382;2023-02-02T06:41:52;3.60;;;1.40;;
17854;SDS011;9053;53.358;6.382;2023-02-02T06:44:22;8.27;;;1.60;;
17854;SDS011;9053;53.358;6.382;2023-02-02T06:46:53;5.47;;;1.40;;
17854;SDS011;9053;53.358;6.382;2023-02-02T06:49:22;3.63;;;1.37;;
17854;SDS011;9053;53.358;6.382;2023-02-02T06:51:55;5.17;;;1.10;;
17854;SDS011;9053;53.358;6.382;2023-02-02T06:54:25;5.17;;;1.47;;
17854;SDS011;9053;53.358;6.382;2023-02-02T06:56:55;8.00;;;2.17;;
17854;SDS011;9053;53.358;6.382;2023-02-02T06:59:25;4.33;;;1.53;;
17854;SDS011;9053;53.358;6.382;2023-02-02T07:01:54;4.20;;;1.30;;
17854;SDS011;9053;53.358;6.382;2023-02-02T07:04:25;5.57;;;1.37;;
17854;SDS011;9053;53.358;6.382;2023-02-02T07:06:57;4.67;;;1.53;;
17854;SDS011;9053;53.358;6.382;2023-02-02T07:09:27;6.90;;;1.90;;
17854;SDS011;9053;53.358;6.382;2023-02-02T07:12:00;3.40;;;1.20;;
17854;SDS011;9053;53.358;6.382;2023-02-02T07:14:30;4.40;;;1.43;;
17854;SDS011;9053;53.358;6.382;2023-02-02T07:17:00;5.93;;;2.50;;
17854;SDS011;9053;53.358;6.382;2023-02-02T07:19:30;6.13;;;1.73;;
17854;SDS011;9053;53.358;6.382;2023-02-02T07:22:02;3.17;;;1.50;;
17854;SDS011;9053;53.358;6.382;2023-02-02T07:24:32;4.90;;;1.73;;
17854;SDS011;9053;53.358;6.382;2023-02-02T07:27:03;3.90;;;1.80;;
17854;SDS011;9053;53.358;6.382;2023-02-02T07:29:33;8.07;;;1.53;;
17854;SDS011;9053;53.358;6.382;2023-02-02T07:32:03;3.73;;;1.33;;
17854;SDS011;9053;53.358;6.382;2023-02-02T07:34:35;5.93;;;1.70;;
17854;SDS011;9053;53.358;6.382;2023-02-02T07:37:10;2.67;;;1.43;;
17854;SDS011;9053;53.358;6.382;2023-02-02T07:39:40;5.73;;;1.60;;
17854;SDS011;9053;53.358;6.382;2023-02-02T07:42:10;6.20;;;1.73;;
17854;SDS011;9053;53.358;6.382;2023-02-02T07:44:40;5.07;;;1.60;;
17854;SDS011;9053;53.358;6.382;2023-02-02T07:47:10;7.10;;;1.67;;
17854;SDS011;9053;53.358;6.382;2023-02-02T07:49:40;7.33;;;2.40;;
17854;SDS011;9053;53.358;6.382;2023-02-02T07:52:13;4.80;;;1.80;;
17854;SDS011;9053;53.358;6.382;2023-02-02T07:54:44;4.50;;;1.30;;
17854;SDS011;9053;53.358;6.382;2023-02-02T07:57:15;5.93;;;1.60;;
17854;SDS011;9053;53.358;6.382;2023-02-02T07:59:45;7.57;;;1.93;;
17854;SDS011;9053;53.358;6.382;2023-02-02T08:02:15;5.83;;;1.47;;
17854;SDS011;9053;53.358;6.382;2023-02-02T08:04:45;5.17;;;1.53;;
17854;SDS011;9053;53.358;6.382;2023-02-02T08:07:18;2.70;;;1.50;;
17854;SDS011;9053;53.358;6.382;2023-02-02T08:09:53;2.80;;;1.37;;
17854;SDS011;9053;53.358;6.382;2023-02-02T08:12:22;5.07;;;1.63;;
17854;SDS011;9053;53.358;6.382;2023-02-02T08:14:52;5.57;;;1.60;;
17854;SDS011;9053;53.358;6.382;2023-02-02T08:17:24;2.43;;;1.60;;
17854;SDS011;9053;53.358;6.382;2023-02-02T08:19:53;2.90;;;1.30;;
17854;SDS011;9053;53.358;6.382;2023-02-02T08:22:26;2.87;;;1.33;;
17854;SDS011;9053;53.358;6.382;2023-02-02T08:24:56;2.73;;;1.37;;
17854;SDS011;9053;53.358;6.382;2023-02-02T08:27:25;4.17;;;1.60;;
17854;SDS011;9053;53.358;6.382;2023-02-02T08:29:55;2.20;;;1.20;;
17854;SDS011;9053;53.358;6.382;2023-02-02T08:32:25;3.27;;;1.10;;
17854;SDS011;9053;53.358;6.382;2023-02-02T08:34:55;2.50;;;1.20;;
17854;SDS011;9053;53.358;6.382;2023-02-02T08:37:27;3.67;;;1.50;;
17854;SDS011;9053;53.358;6.382;2023-02-02T08:39:57;3.30;;;1.30;;
17854;SDS011;9053;53.358;6.382;2023-02-02T08:42:27;5.50;;;1.70;;
17854;SDS011;9053;53.358;6.382;2023-02-02T08:44:57;2.07;;;1.27;;
17854;SDS011;9053;53.358;6.382;2023-02-02T08:47:46;2.27;;;1.50;;
17854;SDS011;9053;53.358;6.382;2023-02-02T08:50:36;2.40;;;1.43;;
17854;SDS011;9053;53.358;6.382;2023-02-02T08:53:08;5.97;;;2.17;;
17854;SDS011;9053;53.358;6.382;2023-02-02T08:55:38;5.87;;;2.20;;
17854;SDS011;9053;53.358;6.382;2023-02-02T08:58:08;4.13;;;1.93;;
17854;SDS011;9053;53.358;6.382;2023-02-02T09:00:38;2.50;;;1.40;;
17854;SDS011;9053;53.358;6.382;2023-02-02T09:03:08;4.47;;;1.70;;
17854;SDS011;9053;53.358;6.382;2023-02-02T09:05:38;4.13;;;1.80;;
17854;SDS011;9053;53.358;6.382;2023-02-02T09:08:10;4.80;;;2.07;;
17854;SDS011;9053;53.358;6.382;2023-02-02T09:10:40;7.33;;;1.80;;
17854;SDS011;9053;53.358;6.382;2023-02-02T09:13:10;3.53;;;1.80;;
17854;SDS011;9053;53.358;6.382;2023-02-02T09:15:40;5.33;;;2.27;;
17854;SDS011;9053;53.358;6.382;2023-02-02T09:18:09;5.03;;;1.73;;
17854;SDS011;9053;53.358;6.382;2023-02-02T09:20:39;5.07;;;1.77;;
17854;SDS011;9053;53.358;6.382;2023-02-02T09:23:12;5.97;;;1.80;;
17854;SDS011;9053;53.358;6.382;2023-02-02T09:25:41;4.80;;;1.97;;
17854;SDS011;9053;53.358;6.382;2023-02-02T09:28:11;6.53;;;2.10;;
17854;SDS011;9053;53.358;6.382;2023-02-02T09:30:41;4.33;;;1.63;;
17854;SDS011;9053;53.358;6.382;2023-02-02T09:33:11;4.37;;;1.67;;
17854;SDS011;9053;53.358;6.382;2023-02-02T09:35:41;6.33;;;2.03;;
17854;SDS011;9053;53.358;6.382;2023-02-02T09:38:13;6.70;;;1.67;;
17854;SDS011;9053;53.358;6.382;2023-02-02T09:40:43;4.80;;;1.60;;
17854;SDS011;9053;53.358;6.382;2023-02-02T09:43:18;5.43;;;1.67;;
17854;SDS011;9053;53.358;6.382;2023-02-02T09:46:01;3.80;;;1.43;;
17854;SDS011;9053;53.358;6.382;2023-02-02T09:48:41;3.93;;;1.60;;
17854;SDS011;9053;53.358;6.382;2023-02-02T09:51:21;5.20;;;2.00;;
17854;SDS011;9053;53.358;6.382;2023-02-02T09:53:58;7.40;;;1.70;;
17854;SDS011;9053;53.358;6.382;2023-02-02T09:56:33;2.67;;;1.70;;
17854;SDS011;9053;53.358;6.382;2023-02-02T09:59:11;5.73;;;1.87;;
17854;SDS011;9053;53.358;6.382;2023-02-02T10:01:51;4.83;;;1.70;;
17854;SDS011;9053;53.358;6.382;2023-02-02T10:04:24;6.70;;;2.07;;
17854;SDS011;9053;53.358;6.382;2023-02-02T10:07:03;6.00;;;1.50;;
17854;SDS011;9053;53.358;6.382;2023-02-02T10:09:41;6.40;;;1.87;;
17854;SDS011;9053;53.358;6.382;2023-02-02T10:12:18;4.97;;;1.80;;
17854;SDS011;9053;53.358;6.382;2023-02-02T10:14:58;6.50;;;1.80;;
17854;SDS011;9053;53.358;6.382;2023-02-02T10:17:39;5.33;;;2.00;;
17854;SDS011;9053;53.358;6.382;2023-02-02T10:20:19;8.57;;;2.60;;
17854;SDS011;9053;53.358;6.382;2023-02-02T10:23:02;4.70;;;1.90;;
17854;SDS011;9053;53.358;6.382;2023-02-02T10:25:44;3.70;;;1.67;;
17854;SDS011;9053;53.358;6.382;2023-02-02T10:28:29;4.93;;;2.23;;
17854;SDS011;9053;53.358;6.382;2023-02-02T10:31:17;6.83;;;2.20;;
17854;SDS011;9053;53.358;6.382;2023-02-02T10:34:07;5.33;;;1.97;;
17854;SDS011;9053;53.358;6.382;2023-02-02T10:40:02;5.83;;;1.43;;
17854;SDS011;9053;53.358;6.382;2023-02-02T10:42:48;4.07;;;1.50;;
17854;SDS011;9053;53.358;6.382;2023-02-02T10:45:46;6.17;;;1.90;;
17854;SDS011;9053;53.358;6.382;2023-02-02T10:48:19;4.77;;;1.40;;
17854;SDS011;9053;53.358;6.382;2023-02-02T10:50:56;2.90;;;1.20;;
17854;SDS011;9053;53.358;6.382;2023-02-02T10:53:29;5.53;;;1.23;;
17854;SDS011;9053;53.358;6.382;2023-02-02T10:56:02;6.30;;;1.50;;
17854;SDS011;9053;53.358;6.382;2023-02-02T10:58:42;4.27;;;1.53;;
17854;SDS011;9053;53.358;6.382;2023-02-02T11:01:16;7.10;;;1.80;;
17854;SDS011;9053;53.358;6.382;2023-02-02T11:03:48;4.43;;;1.47;;
17854;SDS011;9053;53.358;6.382;2023-02-02T11:06:39;3.97;;;1.83;;
17854;SDS011;9053;53.358;6.382;2023-02-02T11:09:17;5.87;;;1.67;;
17854;SDS011;9053;53.358;6.382;2023-02-02T11:11:49;4.07;;;1.70;;
17854;SDS011;9053;53.358;6.382;2023-02-02T11:14:28;3.47;;;1.30;;
17854;SDS011;9053;53.358;6.382;2023-02-02T11:17:16;4.23;;;1.53;;
17854;SDS011;9053;53.358;6.382;2023-02-02T11:19:48;3.40;;;1.43;;
17854;SDS011;9053;53.358;6.382;2023-02-02T11:22:29;7.40;;;2.50;;
17854;SDS011;9053;53.358;6.382;2023-02-02T11:25:02;6.67;;;2.40;;
17854;SDS011;9053;53.358;6.382;2023-02-02T11:27:37;5.37;;;2.10;;
17854;SDS011;9053;53.358;6.382;2023-02-02T11:30:18;6.30;;;2.00;;
17854;SDS011;9053;53.358;6.382;2023-02-02T11:32:53;4.80;;;1.43;;
17854;SDS011;9053;53.358;6.382;2023-02-02T11:35:24;3.77;;;1.93;;
17854;SDS011;9053;53.358;6.382;2023-02-02T11:37:56;3.53;;;1.50;;
17854;SDS011;9053;53.358;6.382;2023-02-02T11:40:30;3.50;;;2.30;;
17854;SDS011;9053;53.358;6.382;2023-02-02T11:43:03;4.40;;;1.83;;
17854;SDS011;9053;53.358;6.382;2023-02-02T11:45:45;4.47;;;2.43;;
17854;SDS011;9053;53.358;6.382;2023-02-02T11:48:22;5.83;;;2.33;;
17854;SDS011;9053;53.358;6.382;2023-02-02T11:50:56;4.13;;;2.10;;
17854;SDS011;9053;53.358;6.382;2023-02-02T11:53:29;4.90;;;2.03;;
17854;SDS011;9053;53.358;6.382;2023-02-02T11:56:01;2.90;;;1.27;;
17854;SDS011;9053;53.358;6.382;2023-02-02T11:58:42;8.37;;;2.30;;
17854;SDS011;9053;53.358;6.382;2023-02-02T12:01:21;5.83;;;2.20;;
17854;SDS011;9053;53.358;6.382;2023-02-02T12:03:53;3.10;;;1.80;;
17854;SDS011;9053;53.358;6.382;2023-02-02T12:06:24;4.70;;;1.60;;
17854;SDS011;9053;53.358;6.382;2023-02-02T12:08:56;7.03;;;1.50;;
17854;SDS011;9053;53.358;6.382;2023-02-02T12:11:32;4.20;;;1.60;;
17854;SDS011;9053;53.358;6.382;2023-02-02T12:14:14;2.93;;;1.60;;
17854;SDS011;9053;53.358;6.382;2023-02-02T12:17:03;4.37;;;1.87;;
17854;SDS011;9053;53.358;6.382;2023-02-02T12:19:49;3.13;;;1.63;;
17854;SDS011;9053;53.358;6.382;2023-02-02T12:22:42;4.10;;;1.57;;
17854;SDS011;9053;53.358;6.382;2023-02-02T12:25:33;3.17;;;1.13;;
17854;SDS011;9053;53.358;6.382;2023-02-02T12:28:14;4.00;;;1.40;;
17854;SDS011;9053;53.358;6.382;2023-02-02T12:30:54;2.90;;;0.97;;
17854;SDS011;9053;53.358;6.382;2023-02-02T12:33:36;0.97;;;0.80;;
17854;SDS011;9053;53.358;6.382;2023-02-02T12:36:17;4.13;;;1.10;;
17854;SDS011;9053;53.358;6.382;2023-02-02T12:39:08;2.23;;;0.97;;
17854;SDS011;9053;53.358;6.382;2023-02-02T12:41:48;4.73;;;1.20;;
17854;SDS011;9053;53.358;6.382;2023-02-02T12:44:50;2.90;;;0.93;;
17854;SDS011;9053;53.358;6.382;2023-02-02T12:47:41;3.23;;;1.47;;
17854;SDS011;9053;53.358;6.382;2023-02-02T12:50:26;4.07;;;1.30;;
17854;SDS011;9053;53.358;6.382;2023-02-02T12:53:15;2.93;;;1.17;;
17854;SDS011;9053;53.358;6.382;2023-02-02T12:55:59;4.07;;;1.30;;
17854;SDS011;9053;53.358;6.382;2023-02-02T12:58:37;3.83;;;1.33;;
17854;SDS011;9053;53.358;6.382;2023-02-02T13:01:20;4.53;;;1.40;;
17854;SDS011;9053;53.358;6.382;2023-02-02T13:04:12;1.70;;;1.20;;
17854;SDS011;9053;53.358;6.382;2023-02-02T13:10:10;3.27;;;1.40;;
17854;SDS011;9053;53.358;6.382;2023-02-02T13:12:47;2.80;;;1.20;;
17854;SDS011;9053;53.358;6.382;2023-02-02T13:15:21;2.20;;;1.20;;
17854;SDS011;9053;53.358;6.382;2023-02-02T13:17:55;7.50;;;1.80;;
17854;SDS011;9053;53.358;6.382;2023-02-02T13:20:34;4.47;;;1.70;;
17854;SDS011;9053;53.358;6.382;2023-02-02T13:23:10;1.83;;;1.20;;
17854;SDS011;9053;53.358;6.382;2023-02-02T13:25:46;4.17;;;1.43;;
17854;SDS011;9053;53.358;6.382;2023-02-02T13:28:24;3.27;;;1.20;;
17854;SDS011;9053;53.358;6.382;2023-02-02T13:31:00;4.07;;;1.33;;
17854;SDS011;9053;53.358;6.382;2023-02-02T13:33:34;4.87;;;1.40;;
17854;SDS011;9053;53.358;6.382;2023-02-02T13:36:08;2.00;;;1.10;;
17854;SDS011;9053;53.358;6.382;2023-02-02T13:38:54;4.93;;;1.23;;
17854;SDS011;9053;53.358;6.382;2023-02-02T13:41:28;3.23;;;1.10;;
17854;SDS011;9053;53.358;6.382;2023-02-02T13:44:00;4.40;;;1.30;;
17854;SDS011;9053;53.358;6.382;2023-02-02T13:46:35;1.43;;;1.10;;
17854;SDS011;9053;53.358;6.382;2023-02-02T13:49:11;2.00;;;1.30;;
17854;SDS011;9053;53.358;6.382;2023-02-02T13:51:50;2.63;;;1.10;;
17854;SDS011;9053;53.358;6.382;2023-02-02T13:57:43;2.73;;;1.00;;
17854;SDS011;9053;53.358;6.382;2023-02-02T14:00:32;1.87;;;1.00;;
17854;SDS011;9053;53.358;6.382;2023-02-02T14:03:15;2.00;;;1.20;;
17854;SDS011;9053;53.358;6.382;2023-02-02T14:06:03;2.30;;;1.10;;
17854;SDS011;9053;53.358;6.382;2023-02-02T14:08:36;3.93;;;1.60;;
17854;SDS011;9053;53.358;6.382;2023-02-02T14:11:16;4.33;;;1.50;;
17854;SDS011;9053;53.358;6.382;2023-02-02T14:13:53;2.03;;;1.50;;
17854;SDS011;9053;53.358;6.382;2023-02-02T14:16:46;2.77;;;1.30;;
17854;SDS011;9053;53.358;6.382;2023-02-02T14:22:17;2.80;;;1.57;;
17854;SDS011;9053;53.358;6.382;2023-02-02T14:31:22;2.80;;;1.50;;
17854;SDS011;9053;53.358;6.382;2023-02-02T14:40:19;3.43;;;1.63;;
17854;SDS011;9053;53.358;6.382;2023-02-02T14:43:01;3.00;;;1.70;;
17854;SDS011;9053;53.358;6.382;2023-02-02T14:51:46;4.13;;;1.67;;
17854;SDS011;9053;53.358;6.382;2023-02-02T14:54:24;2.57;;;1.50;;
17854;SDS011;9053;53.358;6.382;2023-02-02T14:56:59;1.50;;;1.40;;
17854;SDS011;9053;53.358;6.382;2023-02-02T14:59:32;1.93;;;1.50;;
17854;SDS011;9053;53.358;6.382;2023-02-02T15:02:12;3.73;;;2.00;;
17854;SDS011;9053;53.358;6.382;2023-02-02T15:04:48;3.03;;;1.80;;
17854;SDS011;9053;53.358;6.382;2023-02-02T15:13:22;2.13;;;1.80;;
17854;SDS011;9053;53.358;6.382;2023-02-02T15:16:05;2.53;;;2.33;;
17854;SDS011;9053;53.358;6.382;2023-02-02T15:18:43;4.17;;;2.60;;
17854;SDS011;9053;53.358;6.382;2023-02-02T15:21:18;4.67;;;2.60;;
17854;SDS011;9053;53.358;6.382;2023-02-02T15:23:50;3.73;;;2.33;;
17854;SDS011;9053;53.358;6.382;2023-02-02T15:26:20;3.87;;;2.57;;
17854;SDS011;9053;53.358;6.382;2023-02-02T15:28:55;3.43;;;2.80;;
17854;SDS011;9053;53.358;6.382;2023-02-02T15:31:28;3.43;;;3.03;;
17854;SDS011;9053;53.358;6.382;2023-02-02T15:34:03;7.17;;;4.57;;
17854;SDS011;9053;53.358;6.382;2023-02-02T15:36:49;8.50;;;5.10;;
17854;SDS011;9053;53.358;6.382;2023-02-02T15:39:25;8.33;;;5.40;;
17854;SDS011;9053;53.358;6.382;2023-02-02T15:41:59;7.97;;;5.67;;
17854;SDS011;9053;53.358;6.382;2023-02-02T15:44:45;12.50;;;5.70;;
17854;SDS011;9053;53.358;6.382;2023-02-02T15:47:16;9.50;;;5.23;;
17854;SDS011;9053;53.358;6.382;2023-02-02T15:49:48;10.23;;;5.77;;
17854;SDS011;9053;53.358;6.382;2023-02-02T15:52:22;11.10;;;5.80;;
17854;SDS011;9053;53.358;6.382;2023-02-02T15:54:55;12.93;;;5.30;;
17854;SDS011;9053;53.358;6.382;2023-02-02T15:57:27;8.23;;;5.03;;
17854;SDS011;9053;53.358;6.382;2023-02-02T16:00:00;14.50;;;6.30;;
17854;SDS011;9053;53.358;6.382;2023-02-02T16:02:53;9.67;;;5.07;;
17854;SDS011;9053;53.358;6.382;2023-02-02T16:05:41;7.90;;;4.33;;
17854;SDS011;9053;53.358;6.382;2023-02-02T16:08:20;7.80;;;3.77;;
17854;SDS011;9053;53.358;6.382;2023-02-02T16:11:00;8.33;;;3.60;;
17854;SDS011;9053;53.358;6.382;2023-02-02T16:13:33;8.53;;;3.80;;
17854;SDS011;9053;53.358;6.382;2023-02-02T16:16:05;8.13;;;3.70;;
17854;SDS011;9053;53.358;6.382;2023-02-02T16:18:59;5.53;;;3.80;;
17854;SDS011;9053;53.358;6.382;2023-02-02T16:21:34;5.93;;;3.73;;
17854;SDS011;9053;53.358;6.382;2023-02-02T16:24:13;9.13;;;4.17;;
17854;SDS011;9053;53.358;6.382;2023-02-02T16:26:45;11.90;;;4.30;;
17854;SDS011;9053;53.358;6.382;2023-02-02T16:29:16;10.80;;;4.73;;